Time;durP1;ratioP1;P1;durP2;ratioP2;P2;SDS_P1;SDS_P2;PMS_P1;PMS_P2;Temp;Humidity;BMP_temperature;BMP_pressure;BME280_temperature;BME280_humidity;BME280_pressure;Samples;Min_cycle;Max_cycle;Signal;HPM_P1;HPM_P2
2021/12/05 00:17:39;;;;;;;48.08;17.30;;;3.60;99.90;;;;;;4931391;28;20076;-81
2021/12/05 00:20:21;;;;;;;46.50;17.00;;;3.60;99.90;;;;;;4923394;28;20050;-83
2021/12/05 00:22:46;;;;;;;45.50;18.38;;;3.60;99.90;;;;;;4924684;28;20050;-82
2021/12/05 00:25:19;;;;;;;54.20;18.88;;;3.60;99.90;;;;;;4929239;28;20043;-82
2021/12/05 00:27:51;;;;;;;45.42;16.35;;;3.60;99.90;;;;;;4946226;28;20054;-81
2021/12/05 00:59:20;;;;;;;31.83;13.02;;;3.50;99.90;;;;;;4937346;28;20076;-82
2021/12/05 01:14:33;;;;;;;29.00;13.18;;;3.60;99.90;;;;;;4934590;28;20074;-82
2021/12/05 01:17:01;;;;;;;33.53;14.05;;;3.60;99.90;;;;;;4942251;28;20058;-82
2021/12/05 01:19:30;;;;;;;38.30;12.85;;;3.50;99.90;;;;;;4940565;28;20601;-82
2021/12/05 01:22:02;;;;;;;33.28;13.98;;;3.60;99.90;;;;;;4917269;28;20046;-83
2021/12/05 01:27:07;;;;;;;33.65;13.15;;;3.60;99.90;;;;;;4941145;28;20051;-83
2021/12/05 01:40:20;;;;;;;24.23;11.68;;;3.70;99.90;;;;;;4939132;28;20038;-82
2021/12/05 02:12:39;;;;;;;31.80;11.27;;;3.70;99.90;;;;;;4931579;28;20051;-84
2021/12/05 02:41:42;;;;;;;42.97;14.45;;;3.80;99.90;;;;;;4927956;28;20614;-83
2021/12/05 02:44:22;;;;;;;39.00;16.30;;;3.90;99.90;;;;;;4949778;28;20620;-82
2021/12/05 02:47:02;;;;;;;39.85;16.02;;;3.90;99.90;;;;;;4937230;28;20057;-84
2021/12/05 02:49:31;;;;;;;40.15;15.70;;;3.80;99.90;;;;;;4941453;28;20061;-82
2021/12/05 02:52:04;;;;;;;47.90;17.48;;;3.80;99.90;;;;;;4925154;28;20708;-83
2021/12/05 02:54:39;;;;;;;52.75;18.98;;;3.80;99.90;;;;;;4932581;28;20054;-84
2021/12/05 02:57:06;;;;;;;47.08;18.63;;;3.90;99.90;;;;;;4934068;28;20050;-83
2021/12/05 03:02:07;;;;;;;43.25;17.15;;;3.80;99.90;;;;;;4937179;28;20710;-82
2021/12/05 03:04:36;;;;;;;63.88;20.05;;;3.80;99.90;;;;;;4934214;28;20074;-83
2021/12/05 03:07:08;;;;;;;49.22;18.55;;;3.80;99.90;;;;;;4912389;28;20117;-83
2021/12/05 03:09:35;;;;;;;50.60;20.13;;;3.80;99.90;;;;;;4917402;28;20042;-83
2021/12/05 03:12:01;;;;;;;52.40;20.60;;;3.80;99.90;;;;;;4932335;28;20058;-83
2021/12/05 03:14:27;;;;;;;70.25;23.60;;;3.80;99.90;;;;;;4934094;28;20486;-82
2021/12/05 03:16:53;;;;;;;57.17;22.52;;;3.90;99.90;;;;;;4908701;28;20046;-83
2021/12/05 03:19:19;;;;;;;50.47;22.45;;;3.90;99.90;;;;;;4922273;28;20046;-83
2021/12/05 03:21:49;;;;;;;62.92;23.58;;;3.90;99.90;;;;;;4933636;28;20043;-83
2021/12/05 03:24:19;;;;;;;52.72;22.48;;;3.90;99.90;;;;;;4934214;28;20114;-83
2021/12/05 03:26:48;;;;;;;55.83;24.17;;;3.90;99.90;;;;;;4922256;28;20046;-82
2021/12/05 03:29:16;;;;;;;55.03;24.08;;;3.90;99.90;;;;;;4923753;28;20035;-82
2021/12/05 03:31:42;;;;;;;53.78;25.30;;;3.90;99.90;;;;;;4933046;28;20038;-83
2021/12/05 03:34:11;;;;;;;58.13;24.15;;;3.90;99.90;;;;;;4947971;28;20464;-82
2021/12/05 03:36:38;;;;;;;52.38;23.38;;;3.90;99.90;;;;;;4936988;28;20047;-82
2021/12/05 03:39:07;;;;;;;48.85;20.45;;;3.90;99.90;;;;;;4901072;28;20030;-83
2021/12/05 03:41:33;;;;;;;60.90;23.20;;;3.90;99.90;;;;;;4914185;28;20035;-83
2021/12/05 03:43:59;;;;;;;56.78;22.83;;;3.90;99.90;;;;;;4921495;28;20038;-82
2021/12/05 03:46:26;;;;;;;53.75;23.63;;;3.90;99.90;;;;;;4920312;28;20601;-84
2021/12/05 03:48:57;;;;;;;62.72;22.55;;;3.80;99.90;;;;;;4934406;28;20116;-83
2021/12/05 03:51:24;;;;;;;48.60;22.15;;;3.80;99.90;;;;;;4929801;28;20079;-83
2021/12/05 03:53:51;;;;;;;50.30;21.00;;;3.80;99.90;;;;;;4918009;28;20416;-83
2021/12/05 03:56:17;;;;;;;49.45;21.17;;;3.80;99.90;;;;;;4940498;28;21617;-83
2021/12/05 03:58:44;;;;;;;60.47;21.33;;;3.80;99.90;;;;;;4912834;28;20039;-83
2021/12/05 04:01:12;;;;;;;44.15;20.80;;;3.80;99.90;;;;;;4907758;28;20031;-82
2021/12/05 04:03:39;;;;;;;51.35;20.10;;;3.80;99.90;;;;;;4934042;28;20379;-84
2021/12/05 04:06:08;;;;;;;49.00;19.92;;;3.80;99.90;;;;;;4927740;28;20126;-82
2021/12/05 04:08:34;;;;;;;42.22;19.55;;;3.80;99.90;;;;;;4932434;28;20121;-83
2021/12/05 04:11:04;;;;;;;60.20;21.48;;;3.70;99.90;;;;;;4912110;28;20039;-82
2021/12/05 04:13:31;;;;;;;41.35;17.77;;;3.70;99.90;;;;;;4947868;28;20067;-83
2021/12/05 04:16:00;;;;;;;50.53;18.00;;;3.70;99.90;;;;;;4928262;28;20133;-84
2021/12/05 04:18:26;;;;;;;44.35;16.50;;;3.70;99.90;;;;;;4910485;28;20137;-82
2021/12/05 04:20:52;;;;;;;40.42;15.95;;;3.70;99.90;;;;;;4918579;28;20449;-82
2021/12/05 04:23:19;;;;;;;38.13;15.57;;;3.70;99.90;;;;;;4907522;28;20058;-86
2021/12/05 04:25:48;;;;;;;34.80;15.60;;;3.70;99.90;;;;;;4909358;28;21448;-84
2021/12/05 04:28:15;;;;;;;36.03;14.25;;;3.70;99.90;;;;;;4926135;28;20039;-84
2021/12/05 04:30:41;;;;;;;35.67;13.95;;;3.70;99.90;;;;;;4925036;28;20042;-83
2021/12/05 04:33:07;;;;;;;32.60;13.30;;;3.70;99.90;;;;;;4911136;28;20035;-83
2021/12/05 04:35:33;;;;;;;31.45;14.63;;;3.70;99.90;;;;;;4931359;28;20046;-82
2021/12/05 04:37:59;;;;;;;34.95;14.35;;;3.60;99.90;;;;;;4912596;28;20043;-84
2021/12/05 04:40:25;;;;;;;31.10;13.68;;;3.60;99.90;;;;;;4911673;28;20115;-83
2021/12/05 04:42:51;;;;;;;41.05;14.48;;;3.60;99.90;;;;;;4919525;28;20035;-83
2021/12/05 04:45:21;;;;;;;33.75;14.60;;;3.60;99.90;;;;;;4920791;28;20142;-83
2021/12/05 04:47:48;;;;;;;34.88;14.25;;;3.60;99.90;;;;;;4943641;28;20050;-84
2021/12/05 04:50:16;;;;;;;35.97;13.43;;;3.60;99.90;;;;;;4928746;28;21051;-83
2021/12/05 04:52:42;;;;;;;36.50;12.88;;;3.60;99.90;;;;;;4942008;28;20143;-83
2021/12/05 04:55:10;;;;;;;34.13;12.80;;;3.50;99.90;;;;;;4928388;28;20063;-84
2021/12/05 04:57:37;;;;;;;33.42;13.32;;;3.50;99.90;;;;;;4935462;28;20039;-82
2021/12/05 05:00:07;;;;;;;33.92;12.52;;;3.50;99.90;;;;;;4911666;28;20122;-84
2021/12/05 05:02:33;;;;;;;35.28;13.15;;;3.50;99.90;;;;;;4933323;28;20069;-83
2021/12/05 05:04:59;;;;;;;33.42;12.07;;;3.50;99.90;;;;;;4915871;28;20078;-83
2021/12/05 05:07:27;;;;;;;33.80;12.10;;;3.50;99.90;;;;;;4909977;28;20055;-83
2021/12/05 05:09:57;;;;;;;33.08;12.35;;;3.50;99.90;;;;;;4942022;28;20047;-84
2021/12/05 05:12:23;;;;;;;38.28;13.35;;;3.50;99.90;;;;;;4942659;28;20039;-84
2021/12/05 05:14:51;;;;;;;31.25;12.40;;;3.40;99.90;;;;;;4926621;28;20050;-82
2021/12/05 05:17:17;;;;;;;41.28;14.38;;;3.40;99.90;;;;;;4931429;28;20043;-84
2021/12/05 05:19:50;;;;;;;41.00;12.30;;;3.40;99.90;;;;;;4937693;28;20047;-85
2021/12/05 05:41:27;;;;;;;24.42;9.32;;;3.30;99.90;;;;;;4940003;28;20051;-83
2021/12/05 05:46:25;;;;;;;32.42;9.98;;;3.20;99.90;;;;;;4953530;28;20065;-83
2021/12/05 05:51:23;;;;;;;27.30;10.50;;;3.20;99.90;;;;;;4924227;28;20126;-85
2021/12/05 05:53:49;;;;;;;25.35;9.10;;;3.20;99.90;;;;;;4914839;28;20246;-84
2021/12/05 05:56:23;;;;;;;30.88;9.85;;;3.10;99.90;;;;;;4934821;28;20042;-84
2021/12/05 05:58:53;;;;;;;29.98;10.50;;;3.10;99.90;;;;;;4930881;28;20140;-83
2021/12/05 06:01:22;;;;;;;25.17;9.30;;;3.10;99.90;;;;;;4928821;28;20122;-85
2021/12/05 06:03:49;;;;;;;32.85;10.60;;;3.10;99.90;;;;;;4916679;28;20082;-83
2021/12/05 06:06:16;;;;;;;30.55;10.10;;;3.10;99.90;;;;;;4921645;28;20408;-84
2021/12/05 06:08:46;;;;;;;37.80;10.45;;;3.10;99.90;;;;;;4938010;28;20497;-84
2021/12/05 06:11:15;;;;;;;33.42;10.43;;;3.10;99.90;;;;;;4948299;28;20162;-84
2021/12/05 06:13:42;;;;;;;30.00;9.80;;;3.10;99.90;;;;;;4949681;28;20106;-83
2021/12/05 06:16:10;;;;;;;37.00;11.82;;;3.10;99.90;;;;;;4919245;28;20043;-83
2021/12/05 06:18:36;;;;;;;36.22;11.02;;;3.00;99.90;;;;;;4942615;28;20047;-83
2021/12/05 06:21:02;;;;;;;31.25;9.20;;;3.00;99.90;;;;;;4929036;28;20035;-82
2021/12/05 06:23:28;;;;;;;37.40;10.05;;;3.00;99.90;;;;;;4928127;28;20034;-83
2021/12/05 06:25:54;;;;;;;33.28;11.50;;;3.00;99.90;;;;;;4946686;28;20044;-83
2021/12/05 06:28:36;;;;;;;32.13;9.88;;;3.00;99.90;;;;;;4940342;28;20058;-83
2021/12/05 06:41:46;;;;;;;23.80;10.27;;;3.00;99.90;;;;;;4957254;28;20141;-84
2021/12/05 06:46:55;;;;;;;32.38;11.13;;;3.10;99.90;;;;;;4925324;28;20058;-83
2021/12/05 06:49:21;;;;;;;42.33;12.60;;;3.00;99.90;;;;;;4901005;28;20039;-84
2021/12/05 06:51:47;;;;;;;29.60;10.82;;;3.10;99.90;;;;;;4919342;28;20039;-85
2021/12/05 06:54:12;;;;;;;37.85;11.55;;;3.00;99.90;;;;;;4916524;28;20035;-84
2021/12/05 06:56:38;;;;;;;41.05;13.15;;;3.10;99.90;;;;;;4916076;28;20035;-84
2021/12/05 06:59:04;;;;;;;37.80;12.20;;;3.10;99.90;;;;;;4906513;28;20094;-84
2021/12/05 07:01:30;;;;;;;29.63;11.13;;;3.10;99.90;;;;;;4911867;28;20077;-86
2021/12/05 07:04:01;;;;;;;31.42;11.18;;;3.10;99.90;;;;;;4938651;28;20817;-85
2021/12/05 07:06:29;;;;;;;38.05;12.07;;;3.10;99.90;;;;;;4894253;28;20289;-84
2021/12/05 07:09:00;;;;;;;35.58;11.68;;;3.10;99.90;;;;;;4921773;28;20034;-85
2021/12/05 07:11:31;;;;;;;33.95;12.10;;;3.20;99.90;;;;;;4914349;28;20333;-84
2021/12/05 07:19:06;;;;;;;49.40;13.73;;;3.20;99.90;;;;;;4939389;28;20035;-84
2021/12/05 07:42:47;;;;;;;30.67;14.07;;;3.40;99.90;;;;;;4927424;28;20042;-84
2021/12/05 07:45:19;;;;;;;38.90;14.23;;;3.30;99.90;;;;;;4918245;28;20524;-83
2021/12/05 07:47:49;;;;;;;39.53;14.05;;;3.40;99.90;;;;;;4940229;28;20057;-84
2021/12/05 07:50:16;;;;;;;34.17;13.13;;;3.40;99.90;;;;;;4918988;28;20446;-83
2021/12/05 07:52:47;;;;;;;35.78;13.40;;;3.40;99.90;;;;;;4930103;28;20465;-84
2021/12/05 07:55:20;;;;;;;47.33;14.30;;;3.40;99.90;;;;;;4924719;28;20047;-84
2021/12/05 08:00:55;;;;;;;36.60;14.10;;;3.50;99.90;;;;;;4926803;28;20039;-86
2021/12/05 08:16:55;;;;;;;45.28;14.63;;;3.60;99.90;;;;;;4913081;28;20089;-83
2021/12/05 08:19:21;;;;;;;42.08;14.95;;;3.60;99.90;;;;;;4923157;28;20047;-84
2021/12/05 08:21:55;;;;;;;45.83;15.13;;;3.60;99.90;;;;;;4936919;28;20387;-84
2021/12/05 08:24:24;;;;;;;48.60;16.05;;;3.60;99.90;;;;;;4922273;28;20546;-83
2021/12/05 08:26:52;;;;;;;48.22;15.77;;;3.60;99.90;;;;;;4937219;28;20261;-84
2021/12/05 08:29:25;;;;;;;43.00;16.58;;;3.70;99.90;;;;;;4947251;28;20396;-84
2021/12/05 09:22:52;;;;;;;49.05;18.00;;;4.00;99.90;;;;;;4926005;28;20442;-83
2021/12/05 09:25:25;;;;;;;61.67;19.38;;;4.00;99.90;;;;;;4944038;28;20055;-84
2021/12/05 09:28:53;;;;;;;49.40;18.63;;;4.10;99.90;;;;;;4928510;28;20058;-82
2021/12/05 09:38:39;;;;;;;44.35;17.13;;;4.10;99.90;;;;;;4924201;28;20054;-84
2021/12/05 10:08:05;;;;;;;33.22;13.55;;;4.40;99.90;;;;;;4935410;28;20039;-83
2021/12/05 10:12:46;;;;;;;27.25;14.05;;;4.50;99.90;;;;;;4939579;28;20051;-83
2021/12/05 10:38:02;;;;;;;32.20;13.15;;;4.80;99.90;;;;;;4890163;29;20044;-83
2021/12/05 10:40:47;;;;;;;37.47;13.25;;;4.80;99.90;;;;;;4894011;28;20090;-83
2021/12/05 10:43:19;;;;;;;31.40;13.50;;;4.80;99.90;;;;;;4938407;28;20049;-83
2021/12/05 10:45:47;;;;;;;35.20;12.63;;;4.90;99.90;;;;;;4930720;28;20078;-83
2021/12/05 10:48:23;;;;;;;27.30;12.23;;;4.90;99.90;;;;;;4936283;28;20039;-83
2021/12/05 10:50:53;;;;;;;29.27;12.77;;;4.90;99.90;;;;;;4933609;28;20038;-84
2021/12/05 10:53:39;;;;;;;36.90;13.48;;;5.00;99.90;;;;;;4944168;28;20453;-83
2021/12/05 10:56:19;;;;;;;29.88;12.45;;;5.00;99.90;;;;;;4960853;28;20060;-83
2021/12/05 10:59:01;;;;;;;26.90;12.45;;;5.00;99.90;;;;;;4942535;28;20112;-82
2021/12/05 11:01:29;;;;;;;29.45;11.77;;;5.00;99.90;;;;;;4923768;28;20050;-83
2021/12/05 11:04:03;;;;;;;27.33;12.93;;;5.10;99.90;;;;;;4938272;28;20441;-83
2021/12/05 11:06:33;;;;;;;33.35;13.00;;;5.10;99.90;;;;;;4955805;28;20050;-82
2021/12/05 11:09:06;;;;;;;31.08;12.23;;;5.10;99.90;;;;;;4935881;28;20122;-83
2021/12/05 11:11:33;;;;;;;32.55;13.43;;;5.10;99.90;;;;;;4922280;28;20406;-83
2021/12/05 11:14:03;;;;;;;23.05;12.85;;;5.10;99.90;;;;;;4917370;28;20418;-83
2021/12/05 11:16:40;;;;;;;30.67;13.23;;;5.00;99.90;;;;;;4924291;28;20130;-83
2021/12/05 11:19:36;;;;;;;25.10;14.13;;;5.00;99.90;;;;;;4952618;28;20042;-84
2021/12/05 11:22:06;;;;;;;28.15;11.25;;;5.10;99.90;;;;;;4937906;28;20042;-83
2021/12/05 11:24:36;;;;;;;36.33;13.07;;;5.00;99.90;;;;;;4921841;28;20514;-81
2021/12/05 11:27:13;;;;;;;34.08;13.60;;;5.00;99.90;;;;;;4923850;28;20043;-81
2021/12/05 11:29:46;;;;;;;38.28;14.85;;;5.00;99.90;;;;;;4943882;28;20038;-82
2021/12/05 11:32:30;;;;;;;25.52;13.57;;;5.00;99.90;;;;;;4917741;28;20438;-82
2021/12/05 11:34:56;;;;;;;26.52;12.48;;;5.10;99.90;;;;;;4919764;28;20047;-82
2021/12/05 11:37:22;;;;;;;29.83;12.77;;;5.10;99.90;;;;;;4888500;28;20487;-82
2021/12/05 11:39:48;;;;;;;29.52;13.80;;;5.00;99.90;;;;;;4946762;28;20047;-82
2021/12/05 11:42:20;;;;;;;28.63;12.25;;;5.10;99.90;;;;;;4889731;28;20053;-81
2021/12/05 11:44:52;;;;;;;29.80;11.80;;;5.00;99.90;;;;;;4917498;28;20097;-81
2021/12/05 11:47:22;;;;;;;28.38;12.40;;;5.10;99.90;;;;;;4930053;28;20315;-81
2021/12/05 11:49:49;;;;;;;27.05;11.95;;;5.10;99.90;;;;;;4932629;28;20371;-82
2021/12/05 11:52:22;;;;;;;30.98;13.35;;;5.20;99.90;;;;;;4917335;28;20043;-81
2021/12/05 11:54:47;;;;;;;;;;;5.10;99.90;;;;;;4915749;28;20042;-82
2021/12/05 11:57:17;;;;;;;35.15;13.88;;;5.10;99.90;;;;;;4939628;28;19925;-81
2021/12/05 11:59:53;;;;;;;27.23;13.00;;;5.20;99.90;;;;;;4920618;28;20046;-82
2021/12/05 12:02:22;;;;;;;37.88;13.48;;;5.20;99.90;;;;;;4931631;28;20043;-82
2021/12/05 12:04:51;;;;;;;27.08;12.10;;;5.30;99.90;;;;;;4948131;28;20031;-82
2021/12/05 12:07:35;;;;;;;30.73;13.20;;;5.30;99.90;;;;;;4950071;28;20425;-82
2021/12/05 12:10:18;;;;;;;31.40;13.30;;;5.30;99.90;;;;;;4926087;28;20047;-82
2021/12/05 12:13:18;;;;;;;29.08;13.20;;;5.30;99.90;;;;;;4919482;28;20137;-82
2021/12/05 12:15:45;;;;;;;29.52;13.40;;;5.30;99.90;;;;;;4907410;28;20062;-81
2021/12/05 12:18:25;;;;;;;31.13;13.05;;;5.30;99.90;;;;;;4939720;28;20059;-82
2021/12/05 12:20:53;;;;;;;29.55;12.93;;;5.40;99.90;;;;;;4944592;28;20054;-82
2021/12/05 12:23:20;;;;;;;23.75;12.70;;;5.40;99.90;;;;;;4929689;28;20046;-82
2021/12/05 12:25:51;;;;;;;31.77;13.05;;;5.40;99.90;;;;;;4899905;28;20494;-82
2021/12/05 12:28:18;;;;;;;32.28;13.45;;;5.40;99.90;;;;;;4918619;28;20126;-82
2021/12/05 12:30:52;;;;;;;29.23;12.60;;;5.50;99.90;;;;;;4923146;28;20043;-82
2021/12/05 12:33:29;;;;;;;29.83;13.93;;;5.50;99.90;;;;;;4939918;28;20058;-82
2021/12/05 12:35:55;;;;;;;31.42;12.50;;;5.60;99.90;;;;;;4924846;28;20047;-82
2021/12/05 12:38:42;;;;;;;24.60;12.35;;;5.50;99.90;;;;;;4911193;28;20058;-82
2021/12/05 12:41:17;;;;;;;24.55;12.52;;;5.60;99.90;;;;;;4938466;28;20123;-82
2021/12/05 12:43:58;;;;;;;30.30;12.30;;;5.60;99.90;;;;;;4945832;28;20049;-82
2021/12/05 12:46:42;;;;;;;20.90;12.02;;;5.60;99.90;;;;;;4935986;28;20049;-83
2021/12/05 12:49:14;;;;;;;21.38;11.10;;;5.60;99.90;;;;;;4944376;28;20430;-83
2021/12/05 12:51:49;;;;;;;22.50;10.00;;;5.60;99.90;;;;;;4930776;28;20486;-83
2021/12/05 12:54:33;;;;;;;23.65;10.93;;;5.60;99.90;;;;;;4929108;28;20142;-84
2021/12/05 12:57:16;;;;;;;17.88;10.55;;;5.50;99.90;;;;;;4919613;28;20035;-83
2021/12/05 12:59:44;;;;;;;23.02;10.68;;;5.50;99.90;;;;;;4929102;28;20050;-82
2021/12/05 13:02:29;;;;;;;23.30;11.45;;;5.50;99.90;;;;;;4936120;28;20089;-81
2021/12/05 13:05:17;;;;;;;22.33;11.63;;;5.50;99.90;;;;;;4937591;28;20043;-81
2021/12/05 13:10:27;;;;;;;27.75;14.32;;;5.60;99.90;;;;;;4946867;28;20434;-81
2021/12/05 13:13:02;;;;;;;32.33;13.65;;;5.60;99.90;;;;;;4931409;28;20050;-82
2021/12/05 13:15:30;;;;;;;34.05;15.07;;;5.70;99.90;;;;;;4936595;28;20042;-82
2021/12/05 13:18:21;;;;;;;28.70;13.18;;;5.70;99.90;;;;;;4936545;28;20038;-81
2021/12/05 13:20:59;;;;;;;23.02;11.95;;;5.70;99.90;;;;;;4928758;28;20047;-82
2021/12/05 13:23:42;;;;;;;26.95;11.68;;;5.80;99.90;;;;;;4924846;28;20641;-82
2021/12/05 13:26:23;;;;;;;19.52;10.60;;;5.80;99.90;;;;;;4920498;28;20038;-82
2021/12/05 13:29:14;;;;;;;20.02;11.18;;;5.90;99.90;;;;;;4951161;28;20418;-82
2021/12/05 13:31:53;;;;;;;17.15;9.57;;;5.90;99.90;;;;;;4927263;28;20386;-82
2021/12/05 13:34:37;;;;;;;17.70;7.53;;;6.00;99.90;;;;;;4939166;28;20363;-82
2021/12/05 13:37:06;;;;;;;13.68;8.43;;;6.00;99.90;;;;;;4939652;28;20511;-82
2021/12/05 13:39:37;;;;;;;14.38;6.20;;;6.00;99.90;;;;;;4939895;28;20126;-82
2021/12/05 13:42:12;;;;;;;16.67;7.03;;;6.00;99.90;;;;;;4941090;28;20065;-82
2021/12/05 13:45:06;;;;;;;13.20;7.50;;;6.00;99.90;;;;;;4949982;28;20054;-82
2021/12/05 13:47:51;;;;;;;11.13;6.93;;;6.00;99.90;;;;;;4923066;28;20453;-82
2021/12/05 13:50:17;;;;;;;16.02;7.10;;;6.00;99.90;;;;;;4956234;28;20194;-82
2021/12/05 13:53:03;;;;;;;14.75;5.75;;;6.00;99.90;;;;;;4930800;28;20039;-82
2021/12/05 13:55:41;;;;;;;11.85;7.07;;;6.00;99.90;;;;;;4936565;28;20314;-82
2021/12/05 13:58:35;;;;;;;17.02;8.00;;;5.90;99.90;;;;;;4921166;28;20043;-82
2021/12/05 14:01:12;;;;;;;14.75;7.45;;;5.90;99.90;;;;;;4915351;28;20035;-82
2021/12/05 14:03:46;;;;;;;15.85;7.20;;;5.90;99.90;;;;;;4929245;28;20121;-82
2021/12/05 14:06:34;;;;;;;10.00;7.38;;;5.80;99.90;;;;;;4928858;28;20675;-82
2021/12/05 14:09:14;;;;;;;12.32;6.72;;;5.80;99.90;;;;;;4923637;28;20047;-82
2021/12/05 14:12:19;;;;;;;16.58;7.88;;;5.80;99.90;;;;;;4927501;28;20410;-82
2021/12/05 14:14:55;;;;;;;17.17;7.90;;;5.80;99.90;;;;;;4931119;28;20059;-82
2021/12/05 14:17:26;;;;;;;12.70;7.75;;;5.80;99.90;;;;;;4944324;28;20053;-82
2021/12/05 14:20:13;;;;;;;10.20;6.50;;;5.70;99.90;;;;;;4926458;28;20043;-82
2021/12/05 14:22:41;;;;;;;12.25;6.47;;;5.70;99.90;;;;;;4914914;28;20081;-82
2021/12/05 14:25:10;;;;;;;12.52;7.40;;;5.60;99.90;;;;;;4951175;28;20042;-82
2021/12/05 14:27:40;;;;;;;8.00;5.97;;;5.50;99.90;;;;;;4951188;28;20039;-82
2021/12/05 14:30:09;;;;;;;13.98;7.50;;;5.50;99.90;;;;;;4935867;28;20078;-82
2021/12/05 14:32:38;;;;;;;13.68;7.13;;;5.50;99.90;;;;;;4939276;28;20417;-82
2021/12/05 14:35:10;;;;;;;14.68;7.70;;;5.40;99.90;;;;;;4921486;28;20517;-82
2021/12/05 14:37:38;;;;;;;17.80;7.78;;;5.40;99.90;;;;;;4938489;28;20043;-82
2021/12/05 14:40:10;;;;;;;16.38;8.43;;;5.40;99.90;;;;;;4916006;28;20502;-82
2021/12/05 14:42:39;;;;;;;14.88;9.38;;;5.40;99.90;;;;;;4920372;28;20089;-82
2021/12/05 14:45:09;;;;;;;17.58;9.93;;;5.30;99.90;;;;;;4927480;28;20529;-82
2021/12/05 14:47:36;;;;;;;20.23;10.80;;;5.40;99.90;;;;;;4925150;28;20384;-82
2021/12/05 14:50:11;;;;;;;19.15;11.38;;;5.30;99.90;;;;;;4929774;28;20534;-82
2021/12/05 14:52:39;;;;;;;19.05;12.27;;;5.30;99.90;;;;;;4915344;28;20050;-82
2021/12/05 14:55:08;;;;;;;25.63;13.15;;;5.30;99.90;;;;;;4906922;28;20054;-83
2021/12/05 14:57:44;;;;;;;27.83;12.23;;;5.30;99.90;;;;;;4923054;28;20340;-83
2021/12/05 15:00:33;;;;;;;25.58;13.82;;;5.30;99.90;;;;;;4925793;28;20057;-83
2021/12/05 15:03:03;;;;;;;23.80;13.48;;;5.30;99.90;;;;;;4945090;28;20061;-83
2021/12/05 15:05:29;;;;;;;36.47;21.88;;;5.20;99.90;;;;;;4934674;28;20136;-83
2021/12/05 15:08:04;;;;;;;58.33;32.45;;;5.20;99.90;;;;;;4928370;28;20038;-82
2021/12/05 15:10:31;;;;;;;45.80;25.98;;;5.20;99.90;;;;;;4945261;28;20045;-83
2021/12/05 15:12:57;;;;;;;38.25;22.73;;;5.20;99.90;;;;;;4917085;28;20124;-82
2021/12/05 15:15:25;;;;;;;35.13;22.45;;;5.20;99.90;;;;;;4915922;28;20117;-82
2021/12/05 15:17:53;;;;;;;32.00;20.42;;;5.20;99.90;;;;;;4957306;28;20031;-82
2021/12/05 15:20:21;;;;;;;32.72;19.00;;;5.20;99.90;;;;;;4925872;28;20039;-82
2021/12/05 15:22:53;;;;;;;39.30;23.42;;;5.20;99.90;;;;;;4936216;28;20374;-82
2021/12/05 15:25:24;;;;;;;46.47;26.48;;;5.20;99.90;;;;;;4927928;28;20398;-83
2021/12/05 15:27:50;;;;;;;40.45;20.52;;;5.10;99.90;;;;;;4918879;28;22324;-83
2021/12/05 15:30:30;;;;;;;34.08;19.42;;;5.10;99.90;;;;;;4924346;28;20132;-83
2021/12/05 15:33:00;;;;;;;36.75;20.23;;;5.10;99.90;;;;;;4920509;28;20433;-83
2021/12/05 15:35:28;;;;;;;28.15;16.77;;;5.10;99.90;;;;;;4919657;28;20047;-83
2021/12/05 15:38:05;;;;;;;36.72;18.23;;;5.10;99.90;;;;;;4934245;28;20743;-83
2021/12/05 15:40:36;;;;;;;37.30;19.63;;;5.10;99.90;;;;;;4942540;28;20127;-82
2021/12/05 15:43:11;;;;;;;38.38;21.20;;;5.10;99.90;;;;;;4914666;28;20434;-83
2021/12/05 15:45:39;;;;;;;32.67;16.88;;;5.00;99.90;;;;;;4954499;28;20644;-82
2021/12/05 15:48:05;;;;;;;30.88;16.08;;;5.00;99.90;;;;;;4941643;28;20076;-82
2021/12/05 15:50:34;;;;;;;34.47;18.52;;;5.00;99.90;;;;;;4914434;28;20063;-82
2021/12/05 15:52:59;;;;;;;30.17;15.95;;;5.00;99.90;;;;;;4950224;28;20050;-83
2021/12/05 15:55:44;;;;;;;39.35;17.90;;;5.00;99.90;;;;;;4924229;28;20695;-83
2021/12/05 15:58:17;;;;;;;38.42;19.35;;;4.90;99.90;;;;;;4926460;28;20038;-83
2021/12/05 16:00:59;;;;;;;33.80;18.33;;;5.00;99.90;;;;;;4933695;28;20034;-82
2021/12/05 16:03:36;;;;;;;31.05;17.55;;;4.90;99.90;;;;;;4924191;28;20588;-82
2021/12/05 16:06:04;;;;;;;33.42;17.77;;;4.90;99.90;;;;;;4963241;28;20050;-82
2021/12/05 16:08:32;;;;;;;35.90;20.38;;;4.90;99.90;;;;;;4928499;28;20043;-82
2021/12/05 16:10:59;;;;;;;40.50;22.08;;;4.90;99.90;;;;;;4938953;28;20161;-82
2021/12/05 16:13:38;;;;;;;36.95;22.23;;;4.90;99.90;;;;;;4905476;28;20125;-82
2021/12/05 16:16:30;;;;;;;40.45;21.90;;;4.90;99.90;;;;;;4932421;28;20045;-83
2021/12/05 16:19:01;;;;;;;34.35;19.67;;;4.90;99.90;;;;;;4919857;28;20122;-83
2021/12/05 16:21:51;;;;;;;30.92;18.17;;;4.80;99.90;;;;;;4957156;28;20035;-83
2021/12/05 16:24:20;;;;;;;34.55;19.10;;;4.90;99.90;;;;;;4933019;28;20087;-83
2021/12/05 16:26:52;;;;;;;39.95;19.27;;;4.90;99.90;;;;;;4925758;28;20035;-83
2021/12/05 16:29:25;;;;;;;34.15;19.33;;;4.80;99.90;;;;;;4931268;28;20062;-84
2021/12/05 16:31:57;;;;;;;41.03;19.92;;;4.80;99.90;;;;;;4944629;28;20058;-83
2021/12/05 16:34:29;;;;;;;43.75;24.50;;;4.80;99.90;;;;;;4941450;28;20100;-83
2021/12/05 16:37:02;;;;;;;45.08;23.15;;;4.80;99.90;;;;;;4930289;28;20046;-83
2021/12/05 16:39:27;;;;;;;;;;;4.80;99.90;;;;;;4925950;28;20129;-83
2021/12/05 16:41:56;;;;;;;33.75;17.10;;;4.80;99.90;;;;;;4952767;28;20020;-83
2021/12/05 16:44:24;;;;;;;34.75;17.30;;;4.80;99.90;;;;;;4926398;28;20394;-83
2021/12/05 16:46:58;;;;;;;37.35;19.02;;;4.80;99.90;;;;;;4949880;28;20043;-83
2021/12/05 16:49:30;;;;;;;33.28;19.20;;;4.80;99.90;;;;;;4940733;28;20371;-83
2021/12/05 16:52:03;;;;;;;32.38;18.83;;;4.80;99.90;;;;;;4943012;28;20058;-83
2021/12/05 16:54:44;;;;;;;39.15;18.73;;;4.80;99.90;;;;;;4936320;28;20166;-85
2021/12/05 16:57:17;;;;;;;45.17;20.63;;;4.80;99.90;;;;;;4948305;28;20073;-84
2021/12/05 16:59:49;;;;;;;41.38;20.83;;;4.80;99.90;;;;;;4935682;28;20512;-85
2021/12/05 17:02:27;;;;;;;49.20;23.97;;;4.70;99.90;;;;;;4944991;28;20043;-84
2021/12/05 17:05:04;;;;;;;55.08;24.73;;;4.70;99.90;;;;;;4957222;28;20054;-84
2021/12/05 17:10:35;;;;;;;40.00;21.27;;;4.70;99.90;;;;;;4941304;28;20059;-83
2021/12/05 17:13:18;;;;;;;45.42;22.88;;;4.70;99.90;;;;;;4941010;28;20062;-83
2021/12/05 17:15:51;;;;;;;50.63;21.63;;;4.70;99.90;;;;;;4936723;28;20053;-84
2021/12/05 17:18:47;;;;;;;44.78;22.75;;;4.70;99.90;;;;;;4936769;28;20075;-84
2021/12/05 17:21:19;;;;;;;50.28;25.45;;;4.70;99.90;;;;;;4951734;28;20034;-83
2021/12/05 17:24:00;;;;;;;49.17;24.08;;;4.70;99.90;;;;;;4939588;28;20493;-83
2021/12/05 17:26:39;;;;;;;45.22;23.30;;;4.70;99.90;;;;;;4960883;28;20412;-83
2021/12/05 17:29:12;;;;;;;52.67;24.92;;;4.70;99.90;;;;;;4947866;28;20053;-84
2021/12/05 17:31:42;;;;;;;52.97;26.58;;;4.70;99.90;;;;;;4947449;28;20042;-84
2021/12/05 17:34:11;;;;;;;51.17;25.55;;;4.70;99.90;;;;;;4960214;28;20134;-84
2021/12/05 17:36:43;;;;;;;50.20;26.30;;;4.70;99.90;;;;;;4950000;28;20456;-83
2021/12/05 17:39:15;;;;;;;55.13;25.93;;;4.70;99.90;;;;;;4937654;28;20039;-86
2021/12/05 17:41:43;;;;;;;58.10;26.08;;;4.70;99.90;;;;;;4955201;28;20526;-86
2021/12/05 17:44:09;;;;;;;62.78;28.00;;;4.70;99.90;;;;;;4962874;28;20038;-86
2021/12/05 17:46:37;;;;;;;55.72;26.33;;;4.70;99.90;;;;;;4963457;28;20166;-84
2021/12/05 17:49:05;;;;;;;63.67;29.70;;;4.60;99.90;;;;;;4956129;28;20070;-85
2021/12/05 17:51:36;;;;;;;61.80;30.10;;;4.60;99.90;;;;;;4952295;28;20051;-85
2021/12/05 17:54:08;;;;;;;57.40;29.58;;;4.60;99.90;;;;;;4924376;28;20111;-85
2021/12/05 17:56:50;;;;;;;65.07;30.38;;;4.60;99.90;;;;;;4953295;28;20051;-85
2021/12/05 17:59:30;;;;;;;57.80;29.38;;;4.70;99.90;;;;;;4918468;28;20150;-85
2021/12/05 18:04:52;;;;;;;64.03;28.67;;;4.60;99.90;;;;;;4949806;28;20413;-83
2021/12/05 18:07:19;;;;;;;59.58;31.52;;;4.60;99.90;;;;;;4964419;28;20058;-85
2021/12/05 18:09:46;;;;;;;83.07;32.22;;;4.60;99.90;;;;;;4936610;28;20185;-86
2021/12/05 18:12:19;;;;;;;70.03;31.55;;;4.70;99.90;;;;;;4905265;28;20309;-85
2021/12/05 18:14:46;;;;;;;61.95;31.08;;;4.60;99.90;;;;;;4917446;28;20069;-85
2021/12/05 18:17:12;;;;;;;69.63;31.55;;;4.70;99.90;;;;;;4938222;28;20267;-85
2021/12/05 18:19:38;;;;;;;72.05;30.25;;;4.70;99.90;;;;;;4931883;28;20522;-84
2021/12/05 18:22:04;;;;;;;59.53;30.13;;;4.60;99.90;;;;;;4943643;28;20046;-83
2021/12/05 18:24:36;;;;;;;66.00;31.15;;;4.60;99.90;;;;;;4945468;28;20083;-86
2021/12/05 18:27:02;;;;;;;56.95;29.38;;;4.60;99.90;;;;;;4944228;28;20150;-83
2021/12/05 18:29:28;;;;;;;64.28;29.58;;;4.60;99.90;;;;;;4936108;28;20242;-84
2021/12/05 18:32:00;;;;;;;56.70;29.63;;;4.60;99.90;;;;;;4941847;28;20043;-85